Time;durP1;ratioP1;P1;durP2;ratioP2;P2;SDS_P1;SDS_P2;PMS_P1;PMS_P2;Temp;Humidity;BMP_temperature;BMP_pressure;BME280_temperature;BME280_humidity;BME280_pressure;Samples;Min_cycle;Max_cycle;Signal;HPM_P1;HPM_P2
2023/10/23 00:00:44;;;;;;;;;;;7.60;99.90;;;;;;4995155;28;19905;-66
2023/10/23 00:03:10;;;;;;;;;;;7.60;99.90;;;;;;4977368;28;19912;-66
2023/10/23 00:05:35;;;;;;;;;;;7.60;99.90;;;;;;4995064;28;19913;-66
2023/10/23 00:08:01;;;;;;;;;;;7.60;99.90;;;;;;4977725;28;19912;-65
2023/10/23 00:10:27;;;;;;;;;;;7.60;99.90;;;;;;4995036;28;19906;-66
2023/10/23 00:12:52;;;;;;;;;;;7.50;99.90;;;;;;4993747;28;19913;-65
2023/10/23 00:15:18;;;;;;;;;;;7.50;99.90;;;;;;4994683;28;19905;-66
2023/10/23 00:17:43;;;;;;;;;;;7.60;99.90;;;;;;4994953;28;19913;-66
2023/10/23 00:20:09;;;;;;;;;;;7.60;99.90;;;;;;4994989;28;20408;-66
2023/10/23 00:22:35;;;;;;;;;;;7.60;99.90;;;;;;4994912;28;19906;-66
2023/10/23 00:25:00;;;;;;;;;;;7.60;99.90;;;;;;4994951;28;19905;-66
2023/10/23 00:27:26;;;;;;;;;;;7.60;99.90;;;;;;4994859;28;19996;-65
2023/10/23 00:29:52;;;;;;;;;;;7.60;99.90;;;;;;4995128;28;20288;-66
2023/10/23 00:32:17;;;;;;;;;;;7.60;99.90;;;;;;4994772;28;19961;-66
2023/10/23 00:34:43;;;;;;;;;;;7.60;99.90;;;;;;4993874;28;19997;-66
2023/10/23 00:37:08;;;;;;;;;;;7.60;99.90;;;;;;4995244;28;19960;-66
2023/10/23 00:39:34;;;;;;;;;;;7.60;99.90;;;;;;4995100;28;20354;-66
2023/10/23 00:41:59;;;;;;;;;;;7.60;99.90;;;;;;4996820;28;19997;-66
2023/10/23 00:44:27;;;;;;;;;;;7.70;99.90;;;;;;4998939;28;19960;-66
2023/10/23 00:46:52;;;;;;;;;;;7.70;99.90;;;;;;4997422;28;19949;-66
2023/10/23 00:49:18;;;;;;;;;;;7.70;99.90;;;;;;4998730;28;19913;-66
2023/10/23 00:51:44;;;;;;;;;;;7.70;99.90;;;;;;4996848;28;19918;-66
2023/10/23 00:54:10;;;;;;;;;;;7.70;99.90;;;;;;4997493;28;19955;-65
2023/10/23 00:56:35;;;;;;;;;;;7.70;99.90;;;;;;4998201;28;19931;-66
2023/10/23 00:59:01;;;;;;;;;;;7.70;99.90;;;;;;4998443;28;19912;-66
2023/10/23 01:01:28;;;;;;;;;;;7.70;99.90;;;;;;4980985;28;19905;-66
2023/10/23 01:03:54;;;;;;;;;;;7.70;99.90;;;;;;4998648;28;20013;-66
2023/10/23 01:06:20;;;;;;;;;;;7.70;99.90;;;;;;4997567;28;19961;-66
2023/10/23 01:08:46;;;;;;;;;;;7.70;99.90;;;;;;4997036;28;19906;-66
2023/10/23 01:11:11;;;;;;;;;;;7.70;99.90;;;;;;4998376;28;20372;-66
2023/10/23 01:13:38;;;;;;;;;;;7.70;99.90;;;;;;4998256;28;19906;-66
2023/10/23 01:16:03;;;;;;;;;;;7.70;99.90;;;;;;4998166;28;19956;-66
2023/10/23 01:18:29;;;;;;;;;;;7.70;99.90;;;;;;4981124;28;19953;-66
2023/10/23 01:20:55;;;;;;;;;;;7.60;99.90;;;;;;4998077;28;20094;-66
2023/10/23 01:23:24;;;;;;;;;;;7.60;99.90;;;;;;4997086;28;19992;-66
2023/10/23 01:25:49;;;;;;;;;;;7.60;99.90;;;;;;4997979;28;19917;-66
2023/10/23 01:28:15;;;;;;;;;;;7.60;99.90;;;;;;4997922;28;19906;-65
2023/10/23 01:30:40;;;;;;;;;;;7.50;99.90;;;;;;4997829;28;19952;-66
2023/10/23 01:33:06;;;;;;;;;;;7.50;99.90;;;;;;4996567;28;20365;-66
2023/10/23 01:35:31;;;;;;;;;;;7.40;99.90;;;;;;4997740;28;19949;-66
2023/10/23 01:37:57;;;;;;;;;;;7.40;99.90;;;;;;4997438;28;20004;-66
2023/10/23 01:40:22;;;;;;;;;;;7.40;99.90;;;;;;4997937;28;19906;-66
2023/10/23 01:42:48;;;;;;;;;;;7.30;99.90;;;;;;4996413;28;19906;-66
2023/10/23 01:45:14;;;;;;;;;;;7.30;99.90;;;;;;4997644;28;19906;-66
2023/10/23 01:47:40;;;;;;;;;;;7.30;99.90;;;;;;4997556;28;20056;-66
2023/10/23 01:50:06;;;;;;;;;;;7.20;99.90;;;;;;4997832;28;19952;-66
2023/10/23 01:52:31;;;;;;;;;;;7.20;99.90;;;;;;4996989;28;19988;-66
2023/10/23 01:54:58;;;;;;;;;;;7.20;99.90;;;;;;4995883;28;19910;-66
2023/10/23 01:57:24;;;;;;;;;;;7.10;99.90;;;;;;4997708;28;20357;-66
2023/10/23 01:59:49;;;;;;;;;;;7.10;99.90;;;;;;4997401;28;19910;-65
2023/10/23 02:02:15;;;;;;;;;;;7.10;99.90;;;;;;4996973;28;19905;-65
2023/10/23 02:04:40;;;;;;;;;;;7.10;99.90;;;;;;4997169;28;19906;-66
2023/10/23 02:07:06;;;;;;;;;;;7.10;99.90;;;;;;4997246;28;19996;-66
2023/10/23 02:09:32;;;;;;;;;;;7.00;99.90;;;;;;4997152;28;19906;-65
2023/10/23 02:11:57;;;;;;;;;;;7.00;99.90;;;;;;4997234;28;19949;-66
2023/10/23 02:14:23;;;;;;;;;;;7.00;99.90;;;;;;4997306;28;19906;-66
2023/10/23 02:16:48;;;;;;;;;;;7.00;99.90;;;;;;4979836;28;19913;-66
2023/10/23 02:19:14;;;;;;;;;;;7.00;99.90;;;;;;4996056;28;19906;-66
2023/10/23 02:21:39;;;;;;;;;;;7.10;99.90;;;;;;4997363;28;19910;-67
2023/10/23 02:24:05;;;;;;;;;;;7.10;99.90;;;;;;4995888;28;19913;-66
2023/10/23 02:26:30;;;;;;;;;;;7.10;99.90;;;;;;4996645;28;19906;-67
2023/10/23 02:28:57;;;;;;;;;;;7.10;99.90;;;;;;4996301;28;19906;-66
2023/10/23 02:31:22;;;;;;;;;;;7.00;99.90;;;;;;4995986;28;19960;-66
2023/10/23 02:33:50;;;;;;;;;;;7.10;99.90;;;;;;4997668;28;19953;-67
2023/10/23 02:36:16;;;;;;;;;;;7.10;99.90;;;;;;4997801;28;19988;-66
2023/10/23 02:38:42;;;;;;;;;;;7.10;99.90;;;;;;4997775;28;19977;-66
2023/10/23 02:41:07;;;;;;;;;;;7.10;99.90;;;;;;4996262;28;19905;-70
2023/10/23 02:43:33;;;;;;;;;;;7.10;99.90;;;;;;4996998;28;19912;-66
2023/10/23 02:46:02;;;;;;;;;;;7.10;99.90;;;;;;4980028;28;19989;-67
2023/10/23 02:48:28;;;;;;;;;;;7.10;99.90;;;;;;4996638;28;19906;-67
2023/10/23 02:50:57;;;;;;;;;;;7.10;99.90;;;;;;4992551;28;20290;-66
2023/10/23 02:53:23;;;;;;;;;;;7.20;99.90;;;;;;4978151;28;19921;-66
2023/10/23 02:55:49;;;;;;;;;;;7.20;99.90;;;;;;4977059;28;19906;-66
2023/10/23 02:58:15;;;;;;;;;;;7.20;99.90;;;;;;4977055;28;19984;-66
2023/10/23 03:00:42;;;;;;;;;;;7.20;99.90;;;;;;4975633;28;20005;-66
2023/10/23 03:03:11;;;;;;;;;;;7.20;99.90;;;;;;4975527;28;19906;-66
2023/10/23 03:05:37;;;;;;;;;;;7.30;99.90;;;;;;4974693;28;19906;-66
2023/10/23 03:08:03;;;;;;;;;;;7.30;99.90;;;;;;4976666;28;19913;-66
2023/10/23 03:10:29;;;;;;;;;;;7.20;99.90;;;;;;4976842;28;19906;-66
2023/10/23 03:12:54;;;;;;;;;;;7.30;99.90;;;;;;4975501;28;20269;-66
2023/10/23 03:15:20;;;;;;;;;;;7.30;99.90;;;;;;4975273;28;19917;-66
2023/10/23 03:17:45;;;;;;;;;;;7.40;99.90;;;;;;4976322;28;19914;-66
2023/10/23 03:20:11;;;;;;;;;;;7.40;99.90;;;;;;4976115;28;19906;-66
2023/10/23 03:22:37;;;;;;;;;;;7.40;99.90;;;;;;4975113;28;19906;-66
2023/10/23 03:25:03;;;;;;;;;;;7.40;99.90;;;;;;4976401;28;19913;-65
2023/10/23 03:27:29;;;;;;;;;;;7.40;99.90;;;;;;4976765;28;19972;-65
2023/10/23 03:29:54;;;;;;;;;;;7.40;99.90;;;;;;4976179;28;20331;-65
2023/10/23 03:32:20;;;;;;;;;;;7.40;99.90;;;;;;4976179;28;19960;-65
2023/10/23 03:34:45;;;;;;;;;;;7.40;99.90;;;;;;4974974;28;19909;-66
2023/10/23 03:37:11;;;;;;;;;;;7.40;99.90;;;;;;4974956;28;19906;-66
2023/10/23 03:39:36;;;;;;;;;;;7.30;99.90;;;;;;4975083;28;19976;-66
2023/10/23 03:42:02;;;;;;;;;;;7.30;99.90;;;;;;4975800;28;19913;-67
2023/10/23 03:44:27;;;;;;;;;;;7.30;99.90;;;;;;4976696;28;20255;-66
2023/10/23 03:46:53;;;;;;;;;;;7.20;99.90;;;;;;4975990;28;20409;-66
2023/10/23 03:49:19;;;;;;;;;;;7.20;99.90;;;;;;4976661;28;19909;-66
2023/10/23 03:51:44;;;;;;;;;;;7.20;99.90;;;;;;4987303;28;19949;-66
2023/10/23 03:54:11;;;;;;;;;;;7.10;99.90;;;;;;4994008;28;19912;-66
2023/10/23 03:56:36;;;;;;;;;;;7.10;99.90;;;;;;4995230;28;19910;-65
2023/10/23 03:59:02;;;;;;;;;;;7.10;99.90;;;;;;4995499;28;20243;-66
2023/10/23 04:01:28;;;;;;;;;;;7.10;99.90;;;;;;4995248;28;20227;-66
2023/10/23 04:03:53;;;;;;;;;;;7.10;99.90;;;;;;4994405;28;19906;-65
2023/10/23 04:06:19;;;;;;;;;;;7.20;99.90;;;;;;4994821;28;19909;-65
2023/10/23 04:08:44;;;;;;;;;;;7.20;99.90;;;;;;4995096;28;19985;-65
2023/10/23 04:11:13;;;;;;;;;;;7.10;99.90;;;;;;4977530;28;19913;-65
2023/10/23 04:13:39;;;;;;;;;;;7.20;99.90;;;;;;4994275;28;19909;-66
2023/10/23 04:16:05;;;;;;;;;;;7.20;99.90;;;;;;4994570;28;19959;-66
2023/10/23 04:18:30;;;;;;;;;;;7.20;99.90;;;;;;4995394;28;20354;-66
2023/10/23 04:21:23;;;;;;;;;;;7.20;99.90;;;;;;4993987;28;20234;-65
2023/10/23 04:23:49;;;;;;;;;;;7.20;99.90;;;;;;4992958;28;19912;-64
2023/10/23 04:26:14;;;;;;;;;;;7.20;99.90;;;;;;4995167;28;20342;-64
2023/10/23 04:28:40;;;;;;;;;;;7.10;99.90;;;;;;4994887;28;19906;-66
2023/10/23 04:31:06;;;;;;;;;;;7.20;99.90;;;;;;4977007;28;19913;-65
2023/10/23 04:33:31;;;;;;;;;;;7.20;99.90;;;;;;4977098;28;19905;-67
2023/10/23 04:35:57;;;;;;;;;;;7.20;99.90;;;;;;4994842;28;19906;-65
2023/10/23 04:38:24;;;;;;;;;;;7.10;99.90;;;;;;4994813;28;19909;-66
2023/10/23 04:40:58;;;;;;;;;;;7.10;99.90;;;;;;4993449;28;19912;-66
2023/10/23 04:43:24;;;;;;;;;;;7.00;99.90;;;;;;4993463;28;20342;-65
2023/10/23 04:45:52;;;;;;;;;;;7.00;99.90;;;;;;4994647;28;20008;-67
2023/10/23 04:48:18;;;;;;;;;;;6.90;99.90;;;;;;4994972;28;20345;-63
2023/10/23 04:50:43;;;;;;;;;;;6.90;99.90;;;;;;4994162;28;20008;-63
2023/10/23 04:53:09;;;;;;;;;;;6.90;99.90;;;;;;4994555;28;20148;-64
2023/10/23 04:55:35;;;;;;;;;;;6.80;99.90;;;;;;4976975;28;19956;-63
2023/10/23 04:58:01;;;;;;;;;;;6.80;99.90;;;;;;4994809;28;20001;-63
2023/10/23 05:00:27;;;;;;;;;;;6.80;99.90;;;;;;4993339;28;20341;-63
2023/10/23 05:02:52;;;;;;;;;;;6.80;99.90;;;;;;4994230;28;20309;-64
2023/10/23 05:05:18;;;;;;;;;;;6.80;99.90;;;;;;4994659;28;19906;-63
2023/10/23 05:07:43;;;;;;;;;;;6.70;99.90;;;;;;4994606;28;20309;-64
2023/10/23 05:10:09;;;;;;;;;;;6.70;99.90;;;;;;4977263;28;19910;-64
2023/10/23 05:12:35;;;;;;;;;;;6.70;99.90;;;;;;4976902;28;19913;-64
2023/10/23 05:15:01;;;;;;;;;;;6.70;99.90;;;;;;4976862;28;19906;-63
2023/10/23 05:17:26;;;;;;;;;;;6.70;99.90;;;;;;4993171;28;20361;-63
2023/10/23 05:19:52;;;;;;;;;;;6.70;99.90;;;;;;4994805;28;19913;-63
2023/10/23 05:22:17;;;;;;;;;;;6.70;99.90;;;;;;4994394;28;19905;-63
2023/10/23 05:24:46;;;;;;;;;;;6.70;99.90;;;;;;4994376;28;19906;-63
2023/10/23 05:27:12;;;;;;;;;;;6.70;99.90;;;;;;4977070;28;19999;-63
2023/10/23 05:29:37;;;;;;;;;;;6.70;99.90;;;;;;4997506;28;19910;-64
2023/10/23 05:32:03;;;;;;;;;;;6.70;99.90;;;;;;4980358;28;19913;-63
2023/10/23 05:34:29;;;;;;;;;;;6.70;99.90;;;;;;4998237;28;19944;-63
2023/10/23 05:36:54;;;;;;;;;;;6.70;99.90;;;;;;4980256;28;19960;-63
2023/10/23 05:39:19;;;;;;;;;;;6.70;99.90;;;;;;4997831;28;19910;-63
2023/10/23 05:41:45;;;;;;;;;;;6.70;99.90;;;;;;4996409;28;19928;-63
2023/10/23 05:44:11;;;;;;;;;;;6.70;99.90;;;;;;4997667;28;19906;-63
2023/10/23 05:46:36;;;;;;;;;;;6.70;99.90;;;;;;4997760;28;20372;-63
2023/10/23 05:49:02;;;;;;;;;;;6.70;99.90;;;;;;4997489;28;20009;-63
2023/10/23 05:51:27;;;;;;;;;;;6.70;99.90;;;;;;4997068;28;19918;-63
2023/10/23 05:53:53;;;;;;;;;;;6.80;99.90;;;;;;4998036;28;19905;-63
2023/10/23 05:56:18;;;;;;;;;;;6.90;99.90;;;;;;4997426;28;19913;-63
2023/10/23 05:58:46;;;;;;;;;;;6.80;99.90;;;;;;4997413;28;19906;-63
2023/10/23 06:01:12;;;;;;;;;;;6.90;99.90;;;;;;4979984;28;20379;-63
2023/10/23 06:03:38;;;;;;;;;;;6.90;99.90;;;;;;4997035;28;19933;-63
2023/10/23 06:06:03;;;;;;;;;;;7.00;99.90;;;;;;4997586;28;20345;-63
2023/10/23 06:08:29;;;;;;;;;;;7.00;99.90;;;;;;4997367;28;19906;-63
2023/10/23 06:10:55;;;;;;;;;;;7.00;99.90;;;;;;4979408;28;19909;-62
2023/10/23 06:13:20;;;;;;;;;;;7.00;99.90;;;;;;4997191;28;19938;-63
2023/10/23 06:15:46;;;;;;;;;;;7.10;99.90;;;;;;4997172;28;19906;-63
2023/10/23 06:18:12;;;;;;;;;;;7.10;99.90;;;;;;4995996;28;19905;-63
2023/10/23 06:20:38;;;;;;;;;;;7.10;99.90;;;;;;4995722;28;19948;-63
2023/10/23 06:23:03;;;;;;;;;;;7.20;99.90;;;;;;4996946;28;19912;-63
2023/10/23 06:25:29;;;;;;;;;;;7.20;99.90;;;;;;4996887;28;19910;-63
2023/10/23 06:27:55;;;;;;;;;;;7.30;99.90;;;;;;4996874;28;19932;-64
2023/10/23 06:30:21;;;;;;;;;;;7.30;99.90;;;;;;4997173;28;20056;-64
2023/10/23 06:32:47;;;;;;;;;;;7.40;99.90;;;;;;4997005;28;19914;-64
2023/10/23 06:35:12;;;;;;;;;;;7.40;99.90;;;;;;4995649;28;20396;-63
2023/10/23 06:37:38;;;;;;;;;;;7.40;99.90;;;;;;4996468;28;19960;-63
2023/10/23 06:40:04;;;;;;;;;;;7.50;99.90;;;;;;4995135;28;19952;-63
2023/10/23 06:42:30;;;;;;;;;;;8.80;99.90;;;;;;4996634;28;19909;-63
2023/10/23 06:44:57;;;;;;;;;;;7.70;99.90;;;;;;4994981;28;19906;-63
2023/10/23 06:47:22;;;;;;;;;;;7.80;99.90;;;;;;4996525;28;20008;-63
2023/10/23 06:49:48;;;;;;;;;;;7.90;99.90;;;;;;4996463;28;20433;-63
2023/10/23 06:52:13;;;;;;;;;;;7.90;99.90;;;;;;4996148;28;19918;-65
2023/10/23 06:54:39;;;;;;;;;;;8.10;99.90;;;;;;4996166;28;20368;-63
2023/10/23 06:57:08;;;;;;;;;;;8.20;99.90;;;;;;4979551;28;20293;-66
2023/10/23 06:59:34;;;;;;;;;;;8.50;99.90;;;;;;4997322;28;19988;-63
2023/10/23 07:02:00;;;;;;;;;;;8.70;99.90;;;;;;4996249;28;19963;-63
2023/10/23 07:04:26;;;;;;;;;;;8.90;99.90;;;;;;4996190;28;19912;-63
2023/10/23 07:06:51;;;;;;;;;;;9.20;99.90;;;;;;4996038;28;19906;-63
2023/10/23 07:09:17;;;;;;;;;;;9.50;99.90;;;;;;4996124;28;19905;-63
2023/10/23 07:11:43;;;;;;;;;;;9.80;99.90;;;;;;4995971;28;19914;-64
2023/10/23 07:14:09;;;;;;;;;;;10.00;99.90;;;;;;4996127;28;19906;-63
2023/10/23 07:16:35;;;;;;;;;;;10.20;99.90;;;;;;4996012;28;19912;-64
2023/10/23 07:19:02;;;;;;;;;;;10.50;99.90;;;;;;4996138;28;19910;-63
2023/10/23 07:21:28;;;;;;;;;;;10.70;99.90;;;;;;4994556;28;19906;-63
2023/10/23 07:23:53;;;;;;;;;;;10.90;99.90;;;;;;4978332;28;19968;-64
2023/10/23 07:26:19;;;;;;;;;;;11.40;99.90;;;;;;4978154;28;19905;-63
2023/10/23 07:28:45;;;;;;;;;;;11.90;99.90;;;;;;4978105;28;19964;-63
2023/10/23 07:31:11;;;;;;;;;;;12.10;99.90;;;;;;4995512;28;20354;-63
2023/10/23 07:33:36;;;;;;;;;;;12.20;99.90;;;;;;4977997;28;19951;-63
2023/10/23 07:36:11;;;;;;;;;;;12.50;99.90;;;;;;4995512;28;19905;-63
2023/10/23 07:38:41;;;;;;;;;;;12.90;99.90;;;;;;4995532;28;19912;-63
2023/10/23 07:41:07;;;;;;;;;;;13.00;99.90;;;;;;4977889;28;19906;-63
2023/10/23 07:43:33;;;;;;;;;;;13.10;99.90;;;;;;4995231;28;20281;-63
2023/10/23 07:46:03;;;;;;;;;;;13.60;99.90;;;;;;4978058;28;19906;-63
2023/10/23 07:48:29;;;;;;;;;;;14.10;99.90;;;;;;4995285;28;19906;-64
2023/10/23 07:50:56;;;;;;;;;;;14.60;99.90;;;;;;4977757;28;19917;-64
2023/10/23 07:53:22;;;;;;;;;;;15.30;99.90;;;;;;4994950;28;20280;-64
2023/10/23 07:55:47;;;;;;;;;;;15.90;99.90;;;;;;4995534;28;19905;-64
2023/10/23 07:58:13;;;;;;;;;;;16.40;99.90;;;;;;4995647;28;20333;-63
2023/10/23 08:00:38;;;;;;;;;;;16.90;99.90;;;;;;4995581;28;19910;-64
2023/10/23 08:03:04;;;;;;;;;;;17.30;99.90;;;;;;4995008;28;19905;-64
2023/10/23 08:05:30;;;;;;;;;;;17.70;99.90;;;;;;4994994;28;20281;-64
2023/10/23 08:07:55;;;;;;;;;;;17.90;99.90;;;;;;4994883;28;19941;-64
2023/10/23 08:10:21;;;;;;;;;;;18.20;99.90;;;;;;4995107;28;19933;-64
2023/10/23 08:12:47;;;;;;;;;;;18.60;99.90;;;;;;4994316;28;19914;-64
2023/10/23 08:15:12;;;;;;;;;;;19.10;99.00;;;;;;4994940;28;19909;-64
2023/10/23 08:17:38;;;;;;;;;;;19.60;97.40;;;;;;4994814;28;19933;-64
2023/10/23 08:20:04;;;;;;;;;;;19.90;96.40;;;;;;4994828;28;20273;-64
2023/10/23 08:22:29;;;;;;;;;;;20.10;95.40;;;;;;4993540;28;19905;-64
2023/10/23 08:24:55;;;;;;;;;;;20.20;95.20;;;;;;4994846;28;19906;-64
2023/10/23 08:27:20;;;;;;;;;;;20.60;94.40;;;;;;4993463;28;19928;-64
2023/10/23 08:29:46;;;;;;;;;;;21.10;93.20;;;;;;4994963;28;20051;-64
2023/10/23 08:32:12;;;;;;;;;;;21.40;92.30;;;;;;4994609;28;20265;-64
2023/10/23 08:34:38;;;;;;;;;;;21.70;91.50;;;;;;4993478;28;20271;-64
2023/10/23 08:37:03;;;;;;;;;;;21.80;90.60;;;;;;4977284;28;19905;-64
2023/10/23 08:39:29;;;;;;;;;;;21.50;90.20;;;;;;4977245;28;19992;-64
2023/10/23 08:41:55;;;;;;;;;;;21.80;89.50;;;;;;4994800;28;19912;-64
2023/10/23 08:44:21;;;;;;;;;;;22.30;86.70;;;;;;4977266;28;20349;-64
2023/10/23 08:46:46;;;;;;;;;;;22.80;85.80;;;;;;4994317;28;19949;-65
2023/10/23 08:49:12;;;;;;;;;;;22.90;84.20;;;;;;4994371;28;20336;-64
2023/10/23 08:51:39;;;;;;;;;;;23.00;80.90;;;;;;4994659;28;19924;-64
2023/10/23 08:54:12;;;;;;;;;;;22.90;81.60;;;;;;4994469;28;19909;-64
2023/10/23 08:56:38;;;;;;;;;;;22.60;81.50;;;;;;4993195;28;19906;-65
2023/10/23 08:59:04;;;;;;;;;;;22.90;81.10;;;;;;4993987;28;20000;-64
2023/10/23 09:01:30;;;;;;;;;;;23.20;79.60;;;;;;4993148;28;20428;-64
2023/10/23 09:03:56;;;;;;;;;;;23.60;78.70;;;;;;4996733;28;19906;-65
2023/10/23 09:06:21;;;;;;;;;;;24.10;77.00;;;;;;4997978;28;19906;-64
2023/10/23 09:08:47;;;;;;;;;;;24.50;74.80;;;;;;4998229;28;19906;-64
2023/10/23 09:11:12;;;;;;;;;;;23.80;75.10;;;;;;4980557;28;19972;-64
2023/10/23 09:13:39;;;;;;;;;;;23.60;75.50;;;;;;4998678;28;19997;-65
2023/10/23 09:16:05;;;;;;;;;;;23.20;76.50;;;;;;4998343;28;19996;-65
2023/10/23 09:18:32;;;;;;;;;;;22.90;76.70;;;;;;4998081;28;19960;-64
2023/10/23 09:20:58;;;;;;;;;;;23.30;76.10;;;;;;4999125;28;19905;-64
2023/10/23 09:23:24;;;;;;;;;;;23.50;75.50;;;;;;4998241;28;19913;-65
2023/10/23 09:25:55;;;;;;;;;;;23.80;74.60;;;;;;4996743;28;19925;-65
2023/10/23 09:28:21;;;;;;;;;;;24.00;72.80;;;;;;4998182;28;19906;-65
2023/10/23 09:30:46;;;;;;;;;;;23.80;73.00;;;;;;4980304;28;20309;-65
2023/10/23 09:33:14;;;;;;;;;;;23.80;72.80;;;;;;4997946;28;19918;-65
2023/10/23 09:35:40;;;;;;;;;;;23.40;73.60;;;;;;4997889;28;19916;-64
2023/10/23 09:38:12;;;;;;;;;;;23.20;73.70;;;;;;4997747;28;19956;-65
2023/10/23 09:40:38;;;;;;;;;;;23.30;73.20;;;;;;4996541;28;20009;-65
2023/10/23 09:43:04;;;;;;;;;;;23.40;72.60;;;;;;4997367;28;20349;-64
2023/10/23 09:45:30;;;;;;;;;;;23.70;72.70;;;;;;4997619;28;19905;-65
2023/10/23 09:47:58;;;;;;;;;;;24.00;71.90;;;;;;4997213;28;20380;-65
2023/10/23 09:50:25;;;;;;;;;;;24.30;70.10;;;;;;4997183;28;19913;-65
2023/10/23 09:52:52;;;;;;;;;;;24.60;69.80;;;;;;4997464;28;19968;-65
2023/10/23 09:55:20;;;;;;;;;;;24.50;69.50;;;;;;4997329;28;19913;-65
2023/10/23 09:57:47;;;;;;;;;;;24.50;69.30;;;;;;4996043;28;20257;-65
2023/10/23 10:00:13;;;;;;;;;;;24.50;69.00;;;;;;4979848;28;19906;-65
2023/10/23 10:02:40;;;;;;;;;;;24.70;68.10;;;;;;4997511;28;19906;-65
2023/10/23 10:05:07;;;;;;;;;;;24.70;67.70;;;;;;4997201;28;19906;-65
2023/10/23 10:07:49;;;;;;;;;;;24.80;68.00;;;;;;4997671;28;20005;-65
2023/10/23 10:10:15;;;;;;;;;;;24.70;66.90;;;;;;4979696;28;19928;-65
2023/10/23 10:12:41;;;;;;;;;;;24.50;67.60;;;;;;4996967;28;19918;-65
2023/10/23 10:15:09;;;;;;;;;;;24.40;67.70;;;;;;4995400;28;19912;-65
2023/10/23 10:17:37;;;;;;;;;;;24.20;68.10;;;;;;4997033;28;19906;-65
2023/10/23 10:20:05;;;;;;;;;;;23.90;68.80;;;;;;4996980;28;19906;-65
2023/10/23 10:22:34;;;;;;;;;;;23.70;68.80;;;;;;4996826;28;19956;-65
2023/10/23 10:24:59;;;;;;;;;;;24.00;69.30;;;;;;4995674;28;20261;-65
2023/10/23 10:27:25;;;;;;;;;;;23.90;67.70;;;;;;4979780;28;19912;-64
2023/10/23 10:29:51;;;;;;;;;;;23.30;68.10;;;;;;4996838;28;20004;-64
2023/10/23 10:32:17;;;;;;;;;;;23.60;68.60;;;;;;4996713;28;19921;-64
2023/10/23 10:34:45;;;;;;;;;;;23.20;70.00;;;;;;4996715;28;19906;-65
2023/10/23 10:37:11;;;;;;;;;;;23.40;69.20;;;;;;4979188;28;19909;-72
2023/10/23 10:40:06;;;;;;;;;;;24.00;69.00;;;;;;4996488;28;20328;-72
2023/10/23 10:42:35;;;;;;;;;;;24.00;68.70;;;;;;4977447;28;19960;-72
2023/10/23 10:45:14;;;;;;;;;;;24.20;68.50;;;;;;4996450;28;19924;-72
2023/10/23 10:47:43;;;;;;;;;;;24.40;67.50;;;;;;4996412;28;19917;-72
2023/10/23 10:50:12;;;;;;;;;;;24.60;67.20;;;;;;4979048;28;19905;-72
2023/10/23 10:52:38;;;;;;;;;;;24.80;66.70;;;;;;4996047;28;19924;-71
2023/10/23 10:55:04;;;;;;;;;;;25.00;66.30;;;;;;4994983;28;19928;-72
2023/10/23 10:57:30;;;;;;;;;;;24.60;65.90;;;;;;4996338;28;20389;-72
2023/10/23 10:59:56;;;;;;;;;;;24.50;66.50;;;;;;4994930;28;19961;-72
2023/10/23 11:02:22;;;;;;;;;;;24.60;65.50;;;;;;4996470;28;19906;-72
2023/10/23 11:04:48;;;;;;;;;;;24.80;66.00;;;;;;4996308;28;19912;-72
2023/10/23 11:07:13;;;;;;;;;;;24.80;65.50;;;;;;4995797;28;20269;-72
2023/10/23 11:09:41;;;;;;;;;;;24.70;65.80;;;;;;4996320;28;19916;-72
2023/10/23 11:12:07;;;;;;;;;;;24.20;66.00;;;;;;4995904;28;19921;-72
2023/10/23 11:14:32;;;;;;;;;;;24.40;66.80;;;;;;4995943;28;19910;-72
2023/10/23 11:16:58;;;;;;;;;;;24.20;65.80;;;;;;4996101;28;19952;-72
2023/10/23 11:19:24;;;;;;;;;;;24.00;66.60;;;;;;4995778;28;19905;-72
2023/10/23 11:21:49;;;;;;;;;;;23.50;68.00;;;;;;4995412;28;20272;-71
2023/10/23 11:24:15;;;;;;;;;;;23.40;69.10;;;;;;4978262;28;19920;-72
2023/10/23 11:26:40;;;;;;;;;;;23.50;69.00;;;;;;4995344;28;19956;-71
2023/10/23 11:29:06;;;;;;;;;;;23.70;68.00;;;;;;4995613;28;19912;-71
2023/10/23 11:31:31;;;;;;;;;;;23.70;68.20;;;;;;4995305;28;19956;-72
2023/10/23 11:33:57;;;;;;;;;;;24.30;67.10;;;;;;4995620;28;20406;-71
2023/10/23 11:36:26;;;;;;;;;;;24.40;66.00;;;;;;4978069;28;19964;-72
2023/10/23 11:38:52;;;;;;;;;;;24.10;65.90;;;;;;4995814;28;19905;-71
2023/10/23 11:41:17;;;;;;;;;;;23.70;65.60;;;;;;4995362;28;19906;-73
2023/10/23 11:43:43;;;;;;;;;;;23.40;67.10;;;;;;4995531;28;19933;-72
2023/10/23 11:46:08;;;;;;;;;;;23.50;67.40;;;;;;4994157;28;19936;-72
2023/10/23 11:48:34;;;;;;;;;;;23.30;67.30;;;;;;4995329;28;19928;-72
2023/10/23 11:51:00;;;;;;;;;;;23.80;67.10;;;;;;4974443;28;19918;-72
2023/10/23 11:53:26;;;;;;;;;;;24.40;66.20;;;;;;4975811;28;20386;-72
2023/10/23 11:55:51;;;;;;;;;;;24.80;65.30;;;;;;4990739;28;19956;-71
2023/10/23 11:58:27;;;;;;;;;;;25.00;65.40;;;;;;4975785;28;19910;-72
2023/10/23 12:00:52;;;;;;;;;;;24.30;65.30;;;;;;4975769;28;19949;-72
2023/10/23 12:03:18;;;;;;;;;;;24.30;66.10;;;;;;4975718;28;19949;-70
2023/10/23 12:05:44;;;;;;;;;;;23.90;67.20;;;;;;4975676;28;20002;-71
2023/10/23 12:08:09;;;;;;;;;;;24.00;66.60;;;;;;4975944;28;19942;-70
2023/10/23 12:10:37;;;;;;;;;;;24.10;66.60;;;;;;4975511;28;20008;-71
2023/10/23 12:13:03;;;;;;;;;;;23.40;66.70;;;;;;4975424;28;19914;-71
2023/10/23 12:15:29;;;;;;;;;;;22.60;67.70;;;;;;4975529;28;20405;-64
2023/10/23 12:18:02;;;;;;;;;;;21.70;70.10;;;;;;4990254;28;19952;-65
2023/10/23 12:20:29;;;;;;;;;;;21.10;71.50;;;;;;4975612;28;19913;-64
2023/10/23 12:22:55;;;;;;;;;;;20.60;72.70;;;;;;4975196;28;20377;-64
2023/10/23 12:25:21;;;;;;;;;;;20.20;74.00;;;;;;4975422;28;19910;-64
2023/10/23 12:27:46;;;;;;;;;;;20.90;73.00;;;;;;4975122;28;20277;-65
2023/10/23 12:30:12;;;;;;;;;;;21.50;71.90;;;;;;4974464;28;20337;-65
2023/10/23 12:32:39;;;;;;;;;;;21.80;72.20;;;;;;4975291;28;19921;-65
2023/10/23 12:35:05;;;;;;;;;;;22.60;70.00;;;;;;4990211;28;19910;-65
2023/10/23 12:37:31;;;;;;;;;;;23.60;68.90;;;;;;4992795;28;20057;-65
2023/10/23 12:39:58;;;;;;;;;;;24.10;67.10;;;;;;4979334;28;19906;-65
2023/10/23 12:42:24;;;;;;;;;;;24.10;66.80;;;;;;4979346;28;19906;-65
2023/10/23 12:44:50;;;;;;;;;;;24.20;66.90;;;;;;4979507;28;19906;-65
2023/10/23 12:47:16;;;;;;;;;;;24.20;65.60;;;;;;4979114;28;19913;-65
2023/10/23 12:49:42;;;;;;;;;;;24.80;64.70;;;;;;4979374;28;19906;-65
2023/10/23 12:52:08;;;;;;;;;;;25.20;64.70;;;;;;4993317;28;19917;-65
2023/10/23 12:54:33;;;;;;;;;;;25.60;63.00;;;;;;4998117;28;20422;-65
2023/10/23 12:56:59;;;;;;;;;;;25.20;63.10;;;;;;4980997;28;19948;-65
2023/10/23 12:59:25;;;;;;;;;;;25.00;62.90;;;;;;4981126;28;19964;-65
2023/10/23 13:01:50;;;;;;;;;;;24.50;63.30;;;;;;4998403;28;19910;-65
2023/10/23 13:04:16;;;;;;;;;;;24.30;63.90;;;;;;4998950;28;19912;-65
2023/10/23 13:06:41;;;;;;;;;;;23.70;65.30;;;;;;4998530;28;19905;-65
2023/10/23 13:09:07;;;;;;;;;;;23.80;66.20;;;;;;4996872;28;19906;-65
2023/10/23 13:11:32;;;;;;;;;;;24.40;65.10;;;;;;4998309;28;19972;-65
2023/10/23 13:13:58;;;;;;;;;;;24.50;64.20;;;;;;4998164;28;19906;-65
2023/10/23 13:16:25;;;;;;;;;;;24.10;64.90;;;;;;4980640;28;20004;-65
2023/10/23 13:18:52;;;;;;;;;;;23.20;66.30;;;;;;4998281;28;19932;-65
2023/10/23 13:21:18;;;;;;;;;;;22.70;68.10;;;;;;4997963;28;19906;-65
2023/10/23 13:23:44;;;;;;;;;;;21.80;70.20;;;;;;4980401;28;20212;-66
2023/10/23 13:26:09;;;;;;;;;;;21.60;71.60;;;;;;4997465;28;20007;-66
2023/10/23 13:28:35;;;;;;;;;;;21.40;71.60;;;;;;4980555;28;19989;-66
2023/10/23 13:31:01;;;;;;;;;;;21.40;72.60;;;;;;4997822;28;19933;-66
2023/10/23 13:33:26;;;;;;;;;;;21.40;73.00;;;;;;4997769;28;19968;-66
2023/10/23 13:35:52;;;;;;;;;;;21.30;72.90;;;;;;4997800;28;20253;-67
2023/10/23 13:38:17;;;;;;;;;;;21.00;73.70;;;;;;4996199;28;19956;-66
2023/10/23 13:40:42;;;;;;;;;;;20.80;74.50;;;;;;4997693;28;19905;-67
2023/10/23 13:43:08;;;;;;;;;;;20.60;75.30;;;;;;4997935;28;19905;-66
2023/10/23 13:45:34;;;;;;;;;;;20.10;76.80;;;;;;4996293;28;20342;-66
2023/10/23 13:48:00;;;;;;;;;;;19.70;77.80;;;;;;4996054;28;19960;-66
2023/10/23 13:50:27;;;;;;;;;;;19.50;79.20;;;;;;4995527;28;20373;-67
2023/10/23 13:52:53;;;;;;;;;;;19.30;80.10;;;;;;4997688;28;19921;-68
2023/10/23 13:55:19;;;;;;;;;;;19.10;81.20;;;;;;4979970;28;19937;-66
2023/10/23 13:57:45;;;;;;;;;;;19.00;82.00;;;;;;4997586;28;20338;-66
2023/10/23 14:00:10;;;;;;;;;;;18.80;83.50;;;;;;4997498;28;19916;-68
2023/10/23 14:02:36;;;;;;;;;;;18.50;85.10;;;;;;4997034;28;20362;-66
2023/10/23 14:05:04;;;;;;;;;;;18.30;86.60;;;;;;4997282;28;19912;-66
2023/10/23 14:07:29;;;;;;;;;;;18.20;88.10;;;;;;4997244;28;19937;-66
2023/10/23 14:09:55;;;;;;;;;;;18.30;89.30;;;;;;4997119;28;19912;-66
2023/10/23 14:12:20;;;;;;;;;;;18.20;90.30;;;;;;4979589;28;19925;-66
2023/10/23 14:14:46;;;;;;;;;;;18.20;91.00;;;;;;4996806;28;20370;-65
2023/10/23 14:17:11;;;;;;;;;;;18.10;91.70;;;;;;4997030;28;19906;-65